Time;durP1;ratioP1;P1;durP2;ratioP2;P2;SDS_P1;SDS_P2;PMS_P1;PMS_P2;Temp;Humidity;BMP_temperature;BMP_pressure;BME280_temperature;BME280_humidity;BME280_pressure;Samples;Min_cycle;Max_cycle;Signal;HPM_P1;HPM_P2
2024/01/14 00:02:20;;;;;;;20.35;9.48;;;;;;;;;;4951212;28;20130;-65
2024/01/14 00:04:46;;;;;;;20.98;9.88;;;;;;;;;;4951125;29;20051;-65
2024/01/14 00:07:16;;;;;;;19.75;9.27;;;;;;;;;;4950976;28;20133;-66
2024/01/14 00:09:45;;;;;;;23.92;9.10;;;;;;;;;;4950450;28;20380;-66
2024/01/14 00:12:11;;;;;;;21.13;9.95;;;;;;;;;;4950226;28;20051;-65
2024/01/14 00:14:38;;;;;;;26.88;10.60;;;;;;;;;;4951493;29;20400;-66
2024/01/14 00:17:04;;;;;;;17.80;9.48;;;;;;;;;;4950962;29;20630;-66
2024/01/14 00:19:31;;;;;;;15.30;7.80;;;;;;;;;;4951122;29;20134;-66
2024/01/14 00:21:58;;;;;;;20.33;8.40;;;;;;;;;;4950907;29;20039;-66
2024/01/14 00:24:24;;;;;;;15.30;7.10;;;;;;;;;;4951001;29;20700;-66
2024/01/14 00:26:51;;;;;;;19.33;8.02;;;;;;;;;;4951086;29;20051;-66
2024/01/14 00:29:17;;;;;;;20.02;8.90;;;;;;;;;;4933584;29;20057;-66
2024/01/14 00:31:43;;;;;;;16.50;8.27;;;;;;;;;;4950692;29;20047;-66
2024/01/14 00:34:10;;;;;;;18.10;7.55;;;;;;;;;;4950908;29;20055;-66
2024/01/14 00:36:40;;;;;;;21.10;7.00;;;;;;;;;;4951066;28;20051;-66
2024/01/14 00:39:06;;;;;;;9.23;5.35;;;;;;;;;;4950479;29;20130;-66
2024/01/14 00:41:33;;;;;;;12.80;5.78;;;;;;;;;;4949794;28;20055;-66
2024/01/14 00:44:00;;;;;;;9.00;4.82;;;;;;;;;;4950488;29;20068;-66
2024/01/14 00:46:27;;;;;;;11.48;5.53;;;;;;;;;;4950803;29;20059;-66
2024/01/14 00:48:53;;;;;;;8.00;4.53;;;;;;;;;;4950333;29;20055;-65
2024/01/14 00:51:20;;;;;;;7.63;3.95;;;;;;;;;;4950213;28;20047;-65
2024/01/14 00:53:46;;;;;;;8.80;4.93;;;;;;;;;;4950376;29;20138;-65
2024/01/14 00:56:13;;;;;;;8.75;4.20;;;;;;;;;;4950238;29;20094;-64
2024/01/14 00:58:39;;;;;;;8.10;5.07;;;;;;;;;;4950131;29;20109;-64
2024/01/14 01:01:06;;;;;;;9.70;4.93;;;;;;;;;;4950613;29;20054;-64
2024/01/14 01:03:33;;;;;;;11.05;5.13;;;;;;;;;;4950671;29;20078;-65
2024/01/14 01:05:59;;;;;;;9.93;5.15;;;;;;;;;;4950320;29;20058;-65
2024/01/14 01:08:26;;;;;;;13.18;6.30;;;;;;;;;;4950139;28;20043;-66
2024/01/14 01:10:52;;;;;;;11.55;6.15;;;;;;;;;;4933009;29;20046;-64
2024/01/14 01:13:19;;;;;;;12.02;6.28;;;;;;;;;;4949595;28;20047;-64
2024/01/14 01:15:45;;;;;;;12.88;6.00;;;;;;;;;;4950739;29;20062;-64
2024/01/14 01:18:12;;;;;;;10.95;5.65;;;;;;;;;;4950864;29;20456;-63
2024/01/14 01:20:38;;;;;;;11.52;6.60;;;;;;;;;;4949847;28;20051;-62
2024/01/14 01:23:05;;;;;;;11.18;6.00;;;;;;;;;;4950447;29;20377;-64
2024/01/14 01:25:31;;;;;;;10.88;6.50;;;;;;;;;;4950079;29;20079;-64
2024/01/14 01:27:58;;;;;;;15.48;6.47;;;;;;;;;;4949545;29;20077;-64
2024/01/14 01:30:24;;;;;;;15.98;6.82;;;;;;;;;;4949802;29;20575;-65
2024/01/14 01:32:51;;;;;;;14.70;7.43;;;;;;;;;;4949656;29;20063;-65
2024/01/14 01:35:17;;;;;;;16.67;6.80;;;;;;;;;;4949619;29;20062;-65
2024/01/14 01:37:44;;;;;;;16.92;8.60;;;;;;;;;;4949573;29;20054;-64
2024/01/14 01:40:14;;;;;;;16.60;7.63;;;;;;;;;;4950633;28;20062;-63
2024/01/14 01:42:40;;;;;;;12.80;6.30;;;;;;;;;;4950881;28;20557;-66
2024/01/14 01:45:07;;;;;;;12.93;6.53;;;;;;;;;;4951954;29;20047;-64
2024/01/14 01:47:33;;;;;;;12.73;5.72;;;;;;;;;;4950560;29;20106;-65
2024/01/14 01:50:00;;;;;;;14.57;5.13;;;;;;;;;;4949900;29;20077;-62
2024/01/14 01:52:27;;;;;;;11.85;5.55;;;;;;;;;;4949769;28;20066;-63
2024/01/14 01:54:54;;;;;;;18.20;5.32;;;;;;;;;;4949930;29;20492;-63
2024/01/14 01:57:22;;;;;;;13.07;5.28;;;;;;;;;;4949392;29;20054;-63
2024/01/14 01:59:48;;;;;;;15.65;5.70;;;;;;;;;;4949771;28;20055;-64
2024/01/14 02:02:15;;;;;;;11.27;4.82;;;;;;;;;;4951266;28;20146;-66
2024/01/14 02:04:42;;;;;;;13.45;4.53;;;;;;;;;;4952125;29;20099;-64
2024/01/14 02:07:09;;;;;;;10.30;4.70;;;;;;;;;;4949884;28;20051;-66
2024/01/14 02:09:35;;;;;;;12.32;4.72;;;;;;;;;;4949923;29;20051;-64
2024/01/14 02:12:02;;;;;;;13.00;4.95;;;;;;;;;;4948813;28;20099;-64
2024/01/14 02:14:28;;;;;;;9.55;4.00;;;;;;;;;;4949784;29;20051;-64
2024/01/14 02:16:55;;;;;;;9.05;3.75;;;;;;;;;;4949345;29;20512;-64
2024/01/14 02:19:21;;;;;;;7.10;4.05;;;;;;;;;;4949247;29;20055;-65
2024/01/14 02:21:58;;;;;;;9.57;4.07;;;;;;;;;;4949177;29;20059;-65
2024/01/14 02:24:31;;;;;;;12.85;4.60;;;;;;;;;;4951658;29;20091;-65
2024/01/14 02:26:57;;;;;;;10.32;3.45;;;;;;;;;;4950459;29;20134;-65
2024/01/14 02:29:27;;;;;;;8.88;4.20;;;;;;;;;;4949143;29;20051;-65
2024/01/14 02:31:54;;;;;;;7.00;3.47;;;;;;;;;;4950687;28;20059;-65
2024/01/14 02:34:21;;;;;;;13.30;4.28;;;;;;;;;;4953149;29;20685;-66
2024/01/14 02:36:47;;;;;;;7.05;3.22;;;;;;;;;;4952906;28;20079;-64
2024/01/14 02:39:16;;;;;;;8.57;3.50;;;;;;;;;;4952731;29;20090;-65
2024/01/14 02:41:43;;;;;;;13.63;3.22;;;;;;;;;;4953227;29;20047;-66
2024/01/14 02:44:09;;;;;;;6.63;3.20;;;;;;;;;;4952243;28;20052;-65
2024/01/14 02:46:36;;;;;;;6.90;2.50;;;;;;;;;;4953086;29;20098;-65
2024/01/14 02:49:02;;;;;;;6.57;2.65;;;;;;;;;;4952577;29;20047;-65
2024/01/14 02:51:29;;;;;;;10.05;2.67;;;;;;;;;;4952533;28;20055;-65
2024/01/14 02:53:55;;;;;;;9.05;2.63;;;;;;;;;;4935974;29;20053;-69
2024/01/14 02:56:22;;;;;;;9.52;2.63;;;;;;;;;;4952563;29;20076;-65
2024/01/14 02:58:48;;;;;;;10.32;3.22;;;;;;;;;;4934887;29;20081;-65
2024/01/14 03:01:14;;;;;;;7.13;2.10;;;;;;;;;;4952504;29;20433;-69
2024/01/14 03:03:41;;;;;;;10.68;3.10;;;;;;;;;;4952615;29;20051;-65
2024/01/14 03:06:08;;;;;;;10.48;3.08;;;;;;;;;;4952549;28;20051;-65
2024/01/14 03:08:35;;;;;;;11.43;2.65;;;;;;;;;;4952158;29;20087;-66
2024/01/14 03:11:01;;;;;;;10.15;3.30;;;;;;;;;;4952426;29;20047;-66
2024/01/14 03:13:28;;;;;;;11.10;3.15;;;;;;;;;;4950990;28;20122;-65
2024/01/14 03:15:54;;;;;;;10.90;2.72;;;;;;;;;;4935082;29;20055;-65
2024/01/14 03:18:21;;;;;;;7.80;1.73;;;;;;;;;;4951913;29;20058;-65
2024/01/14 03:20:48;;;;;;;7.82;1.88;;;;;;;;;;4952291;29;20576;-65
2024/01/14 03:23:17;;;;;;;7.80;2.47;;;;;;;;;;4952101;29;20106;-65
2024/01/14 03:25:44;;;;;;;10.95;3.08;;;;;;;;;;4952701;29;20050;-65
2024/01/14 03:28:10;;;;;;;9.65;2.58;;;;;;;;;;4934599;29;20079;-65
2024/01/14 03:30:36;;;;;;;11.45;3.55;;;;;;;;;;4951178;29;20059;-65
2024/01/14 03:33:03;;;;;;;15.45;2.38;;;;;;;;;;4951446;29;20517;-65
2024/01/14 03:35:30;;;;;;;9.32;1.60;;;;;;;;;;4951989;28;20043;-65
2024/01/14 03:37:56;;;;;;;14.68;3.03;;;;;;;;;;4951787;29;20051;-65
2024/01/14 03:40:22;;;;;;;8.90;2.33;;;;;;;;;;4952037;28;20086;-65
2024/01/14 03:42:49;;;;;;;12.75;2.28;;;;;;;;;;4951315;28;20055;-64
2024/01/14 03:45:15;;;;;;;13.55;2.55;;;;;;;;;;4950952;28;20608;-64
2024/01/14 03:47:42;;;;;;;10.32;2.45;;;;;;;;;;4951518;29;20134;-65
2024/01/14 03:50:08;;;;;;;12.65;3.08;;;;;;;;;;4951625;29;20170;-65
2024/01/14 03:52:35;;;;;;;10.32;1.90;;;;;;;;;;4951920;28;20062;-65
2024/01/14 03:55:01;;;;;;;17.08;2.33;;;;;;;;;;4951644;29;20082;-65
2024/01/14 03:57:27;;;;;;;6.93;2.22;;;;;;;;;;4951370;29;20093;-64
2024/01/14 03:59:54;;;;;;;9.00;2.10;;;;;;;;;;4951785;29;20475;-64
2024/01/14 04:02:21;;;;;;;9.15;2.13;;;;;;;;;;4934475;29;20081;-65
2024/01/14 04:04:47;;;;;;;12.05;2.10;;;;;;;;;;4934651;29;20142;-64
2024/01/14 04:07:14;;;;;;;16.92;4.43;;;;;;;;;;4934135;29;20051;-67
2024/01/14 04:09:40;;;;;;;13.95;2.90;;;;;;;;;;4951832;28;20055;-65
2024/01/14 04:12:08;;;;;;;8.77;1.45;;;;;;;;;;4951551;29;20066;-65
2024/01/14 04:14:34;;;;;;;13.02;2.35;;;;;;;;;;4950302;28;20047;-64
2024/01/14 04:17:01;;;;;;;15.40;3.38;;;;;;;;;;4934533;29;20059;-65
2024/01/14 04:19:27;;;;;;;13.70;3.40;;;;;;;;;;4951668;29;20593;-70
2024/01/14 04:21:53;;;;;;;8.68;2.88;;;;;;;;;;4953532;29;20051;-65
2024/01/14 04:24:20;;;;;;;12.18;2.33;;;;;;;;;;4951628;29;20051;-65
2024/01/14 04:26:46;;;;;;;17.38;2.15;;;;;;;;;;4952008;29;20051;-64
2024/01/14 04:29:13;;;;;;;12.75;2.22;;;;;;;;;;4950954;29;20051;-65
2024/01/14 04:31:39;;;;;;;9.65;2.63;;;;;;;;;;4951583;29;20055;-64
2024/01/14 04:34:06;;;;;;;7.90;1.80;;;;;;;;;;4934059;29;20059;-65
2024/01/14 04:36:33;;;;;;;7.22;2.63;;;;;;;;;;4934217;29;20058;-66
2024/01/14 04:38:59;;;;;;;31.15;4.75;;;;;;;;;;4950995;29;20066;-65
2024/01/14 04:41:26;;;;;;;15.45;4.10;;;;;;;;;;4951187;29;20051;-65
2024/01/14 04:43:52;;;;;;;13.70;2.70;;;;;;;;;;4952258;28;20043;-70
2024/01/14 04:46:19;;;;;;;7.50;1.85;;;;;;;;;;4951921;28;20436;-65
2024/01/14 04:48:46;;;;;;;18.15;3.47;;;;;;;;;;4950473;29;20055;-65
2024/01/14 04:51:13;;;;;;;14.52;2.55;;;;;;;;;;4950329;28;20091;-65
2024/01/14 04:53:39;;;;;;;14.00;3.80;;;;;;;;;;4951462;29;20078;-69
2024/01/14 04:56:07;;;;;;;9.68;1.95;;;;;;;;;;4950990;28;20452;-65
2024/01/14 04:58:34;;;;;;;14.90;2.80;;;;;;;;;;4934348;29;20097;-64
2024/01/14 05:01:00;;;;;;;19.35;2.83;;;;;;;;;;4951585;29;20047;-68
2024/01/14 05:03:27;;;;;;;11.23;2.53;;;;;;;;;;4951047;28;20079;-66
2024/01/14 05:05:54;;;;;;;14.20;2.47;;;;;;;;;;4951873;29;20110;-65
2024/01/14 05:08:21;;;;;;;17.92;3.13;;;;;;;;;;4936376;29;20147;-66
2024/01/14 05:10:47;;;;;;;7.65;2.53;;;;;;;;;;4951341;29;20154;-65
2024/01/14 05:13:13;;;;;;;9.15;1.98;;;;;;;;;;4934789;29;20071;-65
2024/01/14 05:15:40;;;;;;;9.88;2.88;;;;;;;;;;4951828;29;20548;-65
2024/01/14 05:18:06;;;;;;;14.13;2.30;;;;;;;;;;4950056;28;20105;-65
2024/01/14 05:20:33;;;;;;;23.42;2.80;;;;;;;;;;4952808;29;20462;-68
2024/01/14 05:22:59;;;;;;;14.82;2.97;;;;;;;;;;4952880;29;20189;-65
2024/01/14 05:25:26;;;;;;;14.25;3.15;;;;;;;;;;4951414;29;20667;-65
2024/01/14 05:27:52;;;;;;;25.15;2.85;;;;;;;;;;4954134;29;20087;-65
2024/01/14 05:30:19;;;;;;;9.90;2.25;;;;;;;;;;4952414;29;20058;-65
2024/01/14 05:32:45;;;;;;;7.55;1.90;;;;;;;;;;4951449;29;20591;-65
2024/01/14 05:35:12;;;;;;;7.35;2.90;;;;;;;;;;4932759;29;20051;-65
2024/01/14 05:37:38;;;;;;;21.80;2.90;;;;;;;;;;4949738;29;20488;-64
2024/01/14 05:40:05;;;;;;;9.55;1.65;;;;;;;;;;4949584;29;20165;-65
2024/01/14 05:42:31;;;;;;;10.35;2.10;;;;;;;;;;4949917;29;20110;-66
2024/01/14 05:44:58;;;;;;;7.28;2.40;;;;;;;;;;4949628;29;20535;-65
2024/01/14 05:47:24;;;;;;;9.73;1.95;;;;;;;;;;4948287;28;20055;-70
2024/01/14 05:49:51;;;;;;;20.05;3.08;;;;;;;;;;4949521;29;20043;-65
2024/01/14 05:52:17;;;;;;;10.13;2.50;;;;;;;;;;4949648;28;20059;-65
2024/01/14 05:54:44;;;;;;;6.63;1.60;;;;;;;;;;4932695;29;20162;-65
2024/01/14 05:57:10;;;;;;;9.45;2.55;;;;;;;;;;4949338;29;20057;-65
2024/01/14 05:59:37;;;;;;;7.88;2.28;;;;;;;;;;4949694;29;20063;-65
2024/01/14 06:02:03;;;;;;;10.68;2.55;;;;;;;;;;4949773;29;20082;-65
2024/01/14 06:04:30;;;;;;;7.18;2.60;;;;;;;;;;4949898;29;20193;-65
2024/01/14 06:06:56;;;;;;;7.95;1.98;;;;;;;;;;4951390;28;20495;-65
2024/01/14 06:09:23;;;;;;;9.02;1.98;;;;;;;;;;4953159;29;20055;-67
2024/01/14 06:11:49;;;;;;;6.90;1.60;;;;;;;;;;4953645;29;20055;-67
2024/01/14 06:14:16;;;;;;;10.05;2.17;;;;;;;;;;4953266;29;20087;-67
2024/01/14 06:16:42;;;;;;;6.38;2.03;;;;;;;;;;4953660;29;20134;-66
2024/01/14 06:19:09;;;;;;;7.00;2.67;;;;;;;;;;4952006;28;20496;-65
2024/01/14 06:21:42;;;;;;;6.85;2.03;;;;;;;;;;4936273;29;20079;-69
2024/01/14 06:24:09;;;;;;;8.43;1.67;;;;;;;;;;4936428;29;20484;-66
2024/01/14 06:26:36;;;;;;;9.55;2.22;;;;;;;;;;4953195;29;20138;-67
2024/01/14 06:29:02;;;;;;;25.90;2.45;;;;;;;;;;4952813;29;20078;-65
2024/01/14 06:31:29;;;;;;;20.80;2.85;;;;;;;;;;4952753;29;20070;-65
2024/01/14 06:33:55;;;;;;;8.60;2.60;;;;;;;;;;4936067;29;20059;-65
2024/01/14 06:36:22;;;;;;;6.47;2.47;;;;;;;;;;4952992;28;20420;-65
2024/01/14 06:38:48;;;;;;;10.98;3.72;;;;;;;;;;4952481;29;20051;-67
2024/01/14 06:41:18;;;;;;;10.50;2.80;;;;;;;;;;4952785;29;20523;-65
2024/01/14 06:43:45;;;;;;;10.98;2.13;;;;;;;;;;4952573;29;20055;-65
2024/01/14 06:46:12;;;;;;;12.35;2.67;;;;;;;;;;4952887;29;20349;-65
2024/01/14 06:48:39;;;;;;;8.43;2.25;;;;;;;;;;4952551;28;20134;-70
2024/01/14 06:51:05;;;;;;;16.10;4.28;;;;;;;;;;4931487;29;20607;-66
2024/01/14 06:53:32;;;;;;;11.88;2.55;;;;;;;;;;4933812;29;20054;-65
2024/01/14 06:55:58;;;;;;;13.82;2.67;;;;;;;;;;4932215;29;20103;-65
2024/01/14 06:58:24;;;;;;;7.53;2.28;;;;;;;;;;4945863;29;20052;-65
2024/01/14 07:00:51;;;;;;;8.07;2.40;;;;;;;;;;4952994;29;20047;-65
2024/01/14 07:03:18;;;;;;;9.20;2.00;;;;;;;;;;4952472;29;20057;-65
2024/01/14 07:05:44;;;;;;;11.32;2.75;;;;;;;;;;4952426;28;20150;-65
2024/01/14 07:08:11;;;;;;;14.18;2.58;;;;;;;;;;4952125;28;20055;-65
2024/01/14 07:10:38;;;;;;;14.90;2.40;;;;;;;;;;4935329;29;20077;-65
2024/01/14 07:13:04;;;;;;;20.30;2.92;;;;;;;;;;4952069;29;20050;-65
2024/01/14 07:15:30;;;;;;;17.33;2.60;;;;;;;;;;4953291;29;20765;-68
2024/01/14 07:17:57;;;;;;;11.07;1.95;;;;;;;;;;4951205;28;20051;-65
2024/01/14 07:20:26;;;;;;;15.45;2.00;;;;;;;;;;4951024;28;20047;-65
2024/01/14 07:22:52;;;;;;;8.98;3.25;;;;;;;;;;4952306;29;20508;-65
2024/01/14 07:25:19;;;;;;;10.57;3.30;;;;;;;;;;4935400;29;20051;-65
2024/01/14 07:27:45;;;;;;;9.35;1.65;;;;;;;;;;4951672;29;20047;-66
2024/01/14 07:30:12;;;;;;;10.52;2.20;;;;;;;;;;4952178;29;20547;-66
2024/01/14 07:32:38;;;;;;;9.10;2.10;;;;;;;;;;4934864;29;20248;-66
2024/01/14 07:35:06;;;;;;;8.73;1.73;;;;;;;;;;4952084;29;20504;-65
2024/01/14 07:37:34;;;;;;;8.52;1.70;;;;;;;;;;4934653;29;20047;-66
2024/01/14 07:40:00;;;;;;;8.20;1.65;;;;;;;;;;4951965;28;20055;-66
2024/01/14 07:42:27;;;;;;;8.85;2.33;;;;;;;;;;4951904;29;20051;-66
2024/01/14 07:44:53;;;;;;;7.45;2.58;;;;;;;;;;4951601;29;20136;-65
2024/01/14 07:47:20;;;;;;;6.60;2.17;;;;;;;;;;4952412;29;20063;-65
2024/01/14 07:49:49;;;;;;;11.73;2.15;;;;;;;;;;4951623;28;20551;-65
2024/01/14 07:52:16;;;;;;;6.68;1.67;;;;;;;;;;4950447;28;20051;-67
2024/01/14 07:54:43;;;;;;;9.02;2.15;;;;;;;;;;4951662;29;20090;-64
2024/01/14 07:57:10;;;;;;;8.20;2.42;;;;;;;;;;4934230;29;20236;-65
2024/01/14 07:59:36;;;;;;;4.57;1.33;;;;;;;;;;4951601;28;20151;-67
2024/01/14 08:02:02;;;;;;;9.63;2.05;;;;;;;;;;4951874;29;20075;-66
2024/01/14 08:04:29;;;;;;;11.43;1.98;;;;;;;;;;4951642;29;20828;-65
2024/01/14 08:06:55;;;;;;;7.20;1.77;;;;;;;;;;4951472;29;20174;-65
2024/01/14 08:09:22;;;;;;;12.05;2.25;;;;;;;;;;4950858;29;20058;-65
2024/01/14 08:11:48;;;;;;;8.20;1.67;;;;;;;;;;4951863;28;20142;-67
2024/01/14 08:14:15;;;;;;;9.02;1.70;;;;;;;;;;4951084;28;20087;-66
2024/01/14 08:16:41;;;;;;;6.60;1.30;;;;;;;;;;4934662;29;20051;-67
2024/01/14 08:19:09;;;;;;;6.93;1.77;;;;;;;;;;4951048;28;20388;-65
2024/01/14 08:21:36;;;;;;;6.97;1.77;;;;;;;;;;4950308;28;20738;-66
2024/01/14 08:24:03;;;;;;;13.23;2.63;;;;;;;;;;4934051;29;20051;-65
2024/01/14 08:26:30;;;;;;;9.07;1.55;;;;;;;;;;4951353;29;20392;-65
2024/01/14 08:28:56;;;;;;;10.02;2.78;;;;;;;;;;4950435;28;20138;-65
2024/01/14 08:31:25;;;;;;;8.77;1.30;;;;;;;;;;4934204;29;20074;-65
2024/01/14 08:33:52;;;;;;;8.65;2.10;;;;;;;;;;4952215;29;20051;-69
2024/01/14 08:36:18;;;;;;;13.68;2.22;;;;;;;;;;4951313;29;20059;-65
2024/01/14 08:38:45;;;;;;;7.93;2.28;;;;;;;;;;4950200;29;20059;-66
2024/01/14 08:41:11;;;;;;;7.65;2.53;;;;;;;;;;4950685;29;20046;-65
2024/01/14 08:43:38;;;;;;;12.07;1.77;;;;;;;;;;4950849;29;20401;-65
2024/01/14 08:46:04;;;;;;;8.48;2.35;;;;;;;;;;4950474;29;20058;-65
2024/01/14 08:48:31;;;;;;;8.70;1.42;;;;;;;;;;4949966;29;20055;-66
2024/01/14 08:50:59;;;;;;;11.88;2.40;;;;;;;;;;4949453;28;20047;-68
2024/01/14 08:53:26;;;;;;;19.40;2.70;;;;;;;;;;4950155;29;20043;-65
2024/01/14 08:55:52;;;;;;;8.07;1.77;;;;;;;;;;4951540;29;20117;-65
2024/01/14 08:58:19;;;;;;;4.85;1.63;;;;;;;;;;4951488;29;20138;-69
2024/01/14 09:00:45;;;;;;;13.82;2.42;;;;;;;;;;4950775;29;20077;-67
2024/01/14 09:03:12;;;;;;;4.35;1.65;;;;;;;;;;4950337;29;20047;-67
2024/01/14 09:05:38;;;;;;;5.10;2.17;;;;;;;;;;4950239;29;20109;-66
2024/01/14 09:08:05;;;;;;;10.35;1.58;;;;;;;;;;4949545;29;20059;-68
2024/01/14 09:10:31;;;;;;;10.93;3.63;;;;;;;;;;4950418;29;20083;-65
2024/01/14 09:12:58;;;;;;;6.03;2.55;;;;;;;;;;4950536;29;20126;-66
2024/01/14 09:15:24;;;;;;;5.30;1.65;;;;;;;;;;4933323;29;20094;-66
2024/01/14 09:17:51;;;;;;;10.50;2.65;;;;;;;;;;4949919;29;20074;-68
2024/01/14 09:20:18;;;;;;;8.05;1.70;;;;;;;;;;4950091;29;20059;-65
2024/01/14 09:22:44;;;;;;;4.72;1.65;;;;;;;;;;4948773;28;20130;-66
2024/01/14 09:25:11;;;;;;;6.70;2.80;;;;;;;;;;4932754;29;20568;-65
2024/01/14 09:27:39;;;;;;;9.63;2.50;;;;;;;;;;4949280;29;20555;-67
2024/01/14 09:30:07;;;;;;;11.70;2.75;;;;;;;;;;4949959;29;20115;-66
2024/01/14 09:32:34;;;;;;;6.40;2.42;;;;;;;;;;4950129;29;20051;-66
2024/01/14 09:35:00;;;;;;;8.23;2.17;;;;;;;;;;4949923;29;20074;-66
2024/01/14 09:37:26;;;;;;;8.63;2.67;;;;;;;;;;4949461;29;20134;-66
2024/01/14 09:39:53;;;;;;;4.10;1.73;;;;;;;;;;4949715;29;20058;-66
2024/01/14 09:42:24;;;;;;;7.18;1.52;;;;;;;;;;4948976;28;20051;-66
2024/01/14 09:44:57;;;;;;;8.90;1.90;;;;;;;;;;4949718;28;20141;-66
2024/01/14 09:47:24;;;;;;;10.20;1.95;;;;;;;;;;4949464;29;20667;-65
2024/01/14 09:49:51;;;;;;;8.93;2.38;;;;;;;;;;4949376;29;20051;-63
2024/01/14 09:52:18;;;;;;;5.88;2.50;;;;;;;;;;4948857;28;21026;-64
2024/01/14 09:54:44;;;;;;;6.68;2.30;;;;;;;;;;4949731;29;20091;-62
2024/01/14 09:57:15;;;;;;;19.48;2.30;;;;;;;;;;4949938;29;20422;-63
2024/01/14 09:59:42;;;;;;;9.65;2.47;;;;;;;;;;4930753;29;20052;-63
2024/01/14 10:02:09;;;;;;;9.68;2.72;;;;;;;;;;4930566;29;20139;-63
2024/01/14 10:04:36;;;;;;;5.95;2.00;;;;;;;;;;4930552;29;20155;-64
2024/01/14 10:07:02;;;;;;;9.25;2.65;;;;;;;;;;4930461;29;20052;-63
2024/01/14 10:09:29;;;;;;;12.82;3.10;;;;;;;;;;4930235;29;20078;-63
2024/01/14 10:11:55;;;;;;;7.60;1.92;;;;;;;;;;4913762;29;20400;-66
2024/01/14 10:14:26;;;;;;;8.85;2.33;;;;;;;;;;4930065;29;20095;-66
2024/01/14 10:16:57;;;;;;;13.15;2.60;;;;;;;;;;4913251;29;20437;-64
2024/01/14 10:19:24;;;;;;;13.05;3.00;;;;;;;;;;4930008;29;20079;-64
2024/01/14 10:21:55;;;;;;;12.45;3.85;;;;;;;;;;4930204;29;20127;-65
2024/01/14 10:24:41;;;;;;;8.85;2.65;;;;;;;;;;4947877;28;20087;-65
2024/01/14 10:27:10;;;;;;;11.30;2.05;;;;;;;;;;4950083;29;20066;-65
2024/01/14 10:29:37;;;;;;;6.85;2.30;;;;;;;;;;4950655;29;20055;-65
2024/01/14 10:32:03;;;;;;;6.45;2.42;;;;;;;;;;4949289;29;20063;-70
2024/01/14 10:34:30;;;;;;;12.32;2.05;;;;;;;;;;4949395;29;20528;-67
2024/01/14 10:37:01;;;;;;;8.75;2.35;;;;;;;;;;4949466;28;20134;-65
2024/01/14 10:39:31;;;;;;;7.75;2.40;;;;;;;;;;4932129;29;20149;-67
2024/01/14 10:41:59;;;;;;;10.98;2.35;;;;;;;;;;4948939;29;20075;-65
2024/01/14 10:44:25;;;;;;;5.15;1.83;;;;;;;;;;4949196;29;20055;-67
2024/01/14 10:46:52;;;;;;;9.75;2.53;;;;;;;;;;4949824;29;20055;-66
2024/01/14 10:49:25;;;;;;;12.68;2.33;;;;;;;;;;4949749;28;20056;-65
2024/01/14 10:52:12;;;;;;;7.97;2.47;;;;;;;;;;4951062;28;20051;-67
2024/01/14 10:54:47;;;;;;;9.27;2.90;;;;;;;;;;4951724;28;20062;-67
2024/01/14 10:57:25;;;;;;;10.25;2.60;;;;;;;;;;4952867;29;20055;-67
2024/01/14 11:00:04;;;;;;;9.95;2.10;;;;;;;;;;4952863;29;20043;-67
2024/01/14 11:02:32;;;;;;;13.77;2.05;;;;;;;;;;4952825;29;20059;-68
2024/01/14 11:04:59;;;;;;;6.65;2.78;;;;;;;;;;4952402;28;20089;-66
2024/01/14 11:07:26;;;;;;;7.82;2.00;;;;;;;;;;4935487;29;20157;-69
2024/01/14 11:09:53;;;;;;;10.73;1.98;;;;;;;;;;4952757;29;20500;-65
2024/01/14 11:12:27;;;;;;;8.20;2.20;;;;;;;;;;4953034;29;20051;-66
2024/01/14 11:15:07;;;;;;;6.40;2.33;;;;;;;;;;4954290;29;20065;-64
2024/01/14 11:17:52;;;;;;;9.60;2.72;;;;;;;;;;4952534;29;20480;-64
2024/01/14 11:20:21;;;;;;;7.68;2.20;;;;;;;;;;4952487;29;20082;-66
2024/01/14 11:22:49;;;;;;;5.85;2.13;;;;;;;;;;4952448;29;20051;-67
2024/01/14 11:25:30;;;;;;;9.20;2.15;;;;;;;;;;4927862;29;20052;-64
2024/01/14 11:27:56;;;;;;;5.75;2.00;;;;;;;;;;4933154;29;20123;-66
2024/01/14 11:30:42;;;;;;;8.90;2.40;;;;;;;;;;4933616;29;20052;-66
2024/01/14 11:33:28;;;;;;;10.65;2.03;;;;;;;;;;4950604;29;20409;-65
2024/01/14 11:35:55;;;;;;;5.35;2.40;;;;;;;;;;4953176;28;20102;-68
2024/01/14 11:38:31;;;;;;;10.48;2.38;;;;;;;;;;4952931;29;20079;-65
2024/01/14 11:40:57;;;;;;;6.00;2.30;;;;;;;;;;4951895;28;20051;-65
2024/01/14 11:43:27;;;;;;;11.40;2.45;;;;;;;;;;4952748;29;20492;-65
2024/01/14 11:45:53;;;;;;;6.38;2.05;;;;;;;;;;4951912;29;20078;-68
2024/01/14 11:48:20;;;;;;;9.90;2.90;;;;;;;;;;4951530;28;20109;-66
2024/01/14 11:50:50;;;;;;;9.20;2.63;;;;;;;;;;4951455;29;20044;-66
2024/01/14 11:53:17;;;;;;;9.63;2.88;;;;;;;;;;4951759;29;20066;-65
2024/01/14 11:55:45;;;;;;;14.38;3.10;;;;;;;;;;4931241;29;20127;-67
2024/01/14 11:58:13;;;;;;;4.32;2.30;;;;;;;;;;4935216;29;20043;-67
2024/01/14 12:00:40;;;;;;;12.27;2.97;;;;;;;;;;4951709;28;20142;-69
2024/01/14 12:03:11;;;;;;;9.43;2.95;;;;;;;;;;4952117;28;20047;-67
2024/01/14 12:05:40;;;;;;;10.68;2.63;;;;;;;;;;4950452;28;20146;-66
2024/01/14 12:08:07;;;;;;;8.27;2.40;;;;;;;;;;4950666;29;20051;-68
2024/01/14 12:10:35;;;;;;;6.43;2.42;;;;;;;;;;4951272;29;20125;-66
2024/01/14 12:13:02;;;;;;;11.98;2.63;;;;;;;;;;4951114;28;20053;-67
2024/01/14 12:15:29;;;;;;;9.77;2.53;;;;;;;;;;4951394;28;20059;-66
2024/01/14 12:18:03;;;;;;;20.45;2.90;;;;;;;;;;4950901;29;20066;-67
2024/01/14 12:20:31;;;;;;;7.70;2.50;;;;;;;;;;4951498;28;20154;-66
2024/01/14 12:22:58;;;;;;;20.30;3.63;;;;;;;;;;4934156;29;20051;-66
2024/01/14 12:25:25;;;;;;;11.80;3.03;;;;;;;;;;4929670;29;20484;-67
2024/01/14 12:27:55;;;;;;;9.57;2.60;;;;;;;;;;4931325;29;20076;-67
2024/01/14 12:30:32;;;;;;;10.23;2.97;;;;;;;;;;4932265;29;20063;-67
2024/01/14 12:33:08;;;;;;;12.93;2.80;;;;;;;;;;4949054;29;20141;-66
2024/01/14 12:35:36;;;;;;;20.52;3.58;;;;;;;;;;4950642;29;20066;-67
2024/01/14 12:38:04;;;;;;;8.10;3.25;;;;;;;;;;4950633;29;20181;-66
2024/01/14 12:40:31;;;;;;;8.13;2.78;;;;;;;;;;4950788;28;20066;-66
2024/01/14 12:42:57;;;;;;;10.20;3.10;;;;;;;;;;4950764;28;20043;-67
2024/01/14 12:45:24;;;;;;;12.20;2.72;;;;;;;;;;4950747;29;20043;-67
2024/01/14 12:47:57;;;;;;;7.55;2.30;;;;;;;;;;4950312;28;20051;-65
2024/01/14 12:50:25;;;;;;;12.55;3.55;;;;;;;;;;4950335;28;20448;-65
2024/01/14 12:53:02;;;;;;;5.80;2.22;;;;;;;;;;4950580;28;20546;-66
2024/01/14 12:55:30;;;;;;;5.88;2.90;;;;;;;;;;4949496;28;20102;-67
2024/01/14 12:58:00;;;;;;;6.40;1.95;;;;;;;;;;4949868;29;20102;-67
2024/01/14 13:00:28;;;;;;;7.70;2.45;;;;;;;;;;4950229;29;20043;-67
2024/01/14 13:02:54;;;;;;;7.45;2.58;;;;;;;;;;4950567;29;20705;-67
2024/01/14 13:05:21;;;;;;;8.63;2.33;;;;;;;;;;4950206;29;20081;-66
2024/01/14 13:07:48;;;;;;;9.10;2.30;;;;;;;;;;4950134;29;20058;-65
2024/01/14 13:10:14;;;;;;;3.35;1.67;;;;;;;;;;4950337;29;20055;-67
2024/01/14 13:12:41;;;;;;;5.82;1.90;;;;;;;;;;4950094;29;20070;-65
2024/01/14 13:15:08;;;;;;;6.70;1.63;;;;;;;;;;4949732;28;20800;-68
2024/01/14 13:17:34;;;;;;;7.28;2.03;;;;;;;;;;4949069;29;20055;-68
2024/01/14 13:20:01;;;;;;;16.20;2.65;;;;;;;;;;4933051;29;20091;-67
2024/01/14 13:22:27;;;;;;;6.82;2.10;;;;;;;;;;4950078;29;20082;-67
2024/01/14 13:24:54;;;;;;;6.90;2.00;;;;;;;;;;4949891;29;20051;-68
2024/01/14 13:27:20;;;;;;;10.90;3.05;;;;;;;;;;4944332;28;20547;-66
2024/01/14 13:29:47;;;;;;;13.75;2.40;;;;;;;;;;4933338;29;20058;-66
2024/01/14 13:32:16;;;;;;;9.90;2.20;;;;;;;;;;4950515;29;20457;-67
2024/01/14 13:34:42;;;;;;;17.02;3.55;;;;;;;;;;4949817;29;20126;-67
2024/01/14 13:37:09;;;;;;;10.45;2.45;;;;;;;;;;4949786;28;20323;-66
2024/01/14 13:39:38;;;;;;;5.85;2.60;;;;;;;;;;4932580;29;20054;-69
2024/01/14 13:42:05;;;;;;;6.40;2.05;;;;;;;;;;4949675;29;20695;-68
2024/01/14 13:44:32;;;;;;;6.90;2.40;;;;;;;;;;4949547;29;20051;-67
2024/01/14 13:46:58;;;;;;;9.00;1.95;;;;;;;;;;4949785;29;20106;-67
2024/01/14 13:49:25;;;;;;;9.43;2.25;;;;;;;;;;4949303;29;20493;-68
2024/01/14 13:51:51;;;;;;;8.60;2.45;;;;;;;;;;4949995;28;20381;-68
2024/01/14 13:54:18;;;;;;;11.43;2.20;;;;;;;;;;4950185;29;20134;-67
2024/01/14 13:56:44;;;;;;;11.30;2.55;;;;;;;;;;4928583;29;20062;-66
2024/01/14 13:59:11;;;;;;;10.93;2.20;;;;;;;;;;4945960;29;20051;-67
2024/01/14 14:01:38;;;;;;;12.40;2.70;;;;;;;;;;4949764;28;20137;-67
2024/01/14 14:04:07;;;;;;;12.43;2.85;;;;;;;;;;4949462;29;20162;-68
2024/01/14 14:06:35;;;;;;;12.82;3.85;;;;;;;;;;4949494;28;20054;-67
2024/01/14 14:09:05;;;;;;;7.93;2.03;;;;;;;;;;4948924;29;20054;-68
2024/01/14 14:11:32;;;;;;;12.43;2.00;;;;;;;;;;4949633;28;20550;-68
2024/01/14 14:13:59;;;;;;;13.23;2.60;;;;;;;;;;4949410;28;20043;-68
2024/01/14 14:16:26;;;;;;;6.38;1.98;;;;;;;;;;4949259;28;20043;-69
2024/01/14 14:19:06;;;;;;;8.45;2.45;;;;;;;;;;4949124;29;20483;-68
2024/01/14 14:21:32;;;;;;;5.10;1.92;;;;;;;;;;4949391;28;20527;-69
2024/01/14 14:24:07;;;;;;;9.55;2.75;;;;;;;;;;4949411;29;20452;-67
2024/01/14 14:26:34;;;;;;;11.38;2.50;;;;;;;;;;4948165;28;20532;-67
2024/01/14 14:29:00;;;;;;;9.07;3.20;;;;;;;;;;4952294;28;20058;-66
2024/01/14 14:31:30;;;;;;;11.23;3.17;;;;;;;;;;4953032;29;20063;-67
2024/01/14 14:34:14;;;;;;;13.98;2.95;;;;;;;;;;4952919;29;20415;-67
2024/01/14 14:36:41;;;;;;;7.85;2.95;;;;;;;;;;4951960;28;20077;-68
2024/01/14 14:39:07;;;;;;;5.53;2.47;;;;;;;;;;4952562;29;20139;-66